sensor_id;sensor_type;location;lat;lon;timestamp;P1;durP1;ratioP1;P2;durP2;ratioP2
15254;SDS011;7730;49.610;11.136;2023-05-10T00:01:27;5.60;;;2.80;;
15254;SDS011;7730;49.610;11.136;2023-05-10T00:03:54;6.38;;;2.90;;
15254;SDS011;7730;49.610;11.136;2023-05-10T00:06:22;5.75;;;2.92;;
15254;SDS011;7730;49.610;11.136;2023-05-10T00:08:49;7.07;;;2.90;;
15254;SDS011;7730;49.610;11.136;2023-05-10T00:11:16;6.00;;;3.10;;
15254;SDS011;7730;49.610;11.136;2023-05-10T00:13:43;5.72;;;3.03;;
15254;SDS011;7730;49.610;11.136;2023-05-10T00:16:10;7.68;;;3.25;;
15254;SDS011;7730;49.610;11.136;2023-05-10T00:18:38;9.13;;;4.32;;
15254;SDS011;7730;49.610;11.136;2023-05-10T00:21:05;7.63;;;3.47;;
15254;SDS011;7730;49.610;11.136;2023-05-10T00:23:33;7.80;;;3.28;;
15254;SDS011;7730;49.610;11.136;2023-05-10T00:26:00;7.97;;;3.20;;
15254;SDS011;7730;49.610;11.136;2023-05-10T00:28:27;8.90;;;3.13;;
15254;SDS011;7730;49.610;11.136;2023-05-10T00:30:55;7.68;;;3.17;;
15254;SDS011;7730;49.610;11.136;2023-05-10T00:33:22;7.88;;;3.35;;
15254;SDS011;7730;49.610;11.136;2023-05-10T00:35:49;7.50;;;3.17;;
15254;SDS011;7730;49.610;11.136;2023-05-10T00:38:16;7.07;;;3.20;;
15254;SDS011;7730;49.610;11.136;2023-05-10T00:40:44;7.60;;;3.53;;
15254;SDS011;7730;49.610;11.136;2023-05-10T00:43:11;9.93;;;3.47;;
15254;SDS011;7730;49.610;11.136;2023-05-10T00:45:38;6.40;;;3.00;;
15254;SDS011;7730;49.610;11.136;2023-05-10T00:48:06;8.68;;;3.28;;
15254;SDS011;7730;49.610;11.136;2023-05-10T00:50:33;7.88;;;3.20;;
15254;SDS011;7730;49.610;11.136;2023-05-10T00:53:01;7.82;;;4.03;;
15254;SDS011;7730;49.610;11.136;2023-05-10T00:55:28;9.23;;;4.95;;
15254;SDS011;7730;49.610;11.136;2023-05-10T00:57:57;8.95;;;4.45;;
15254;SDS011;7730;49.610;11.136;2023-05-10T01:00:24;8.77;;;4.43;;
15254;SDS011;7730;49.610;11.136;2023-05-10T01:02:52;8.10;;;4.00;;
15254;SDS011;7730;49.610;11.136;2023-05-10T01:05:19;8.18;;;3.88;;
15254;SDS011;7730;49.610;11.136;2023-05-10T01:07:46;8.02;;;3.80;;
15254;SDS011;7730;49.610;11.136;2023-05-10T01:10:14;8.27;;;3.72;;
15254;SDS011;7730;49.610;11.136;2023-05-10T01:12:43;7.75;;;3.80;;
15254;SDS011;7730;49.610;11.136;2023-05-10T01:15:12;10.38;;;5.00;;
15254;SDS011;7730;49.610;11.136;2023-05-10T01:17:39;7.72;;;3.85;;
15254;SDS011;7730;49.610;11.136;2023-05-10T01:20:07;9.88;;;4.47;;
15254;SDS011;7730;49.610;11.136;2023-05-10T01:22:43;8.95;;;3.90;;
15254;SDS011;7730;49.610;11.136;2023-05-10T01:25:20;9.25;;;4.05;;
15254;SDS011;7730;49.610;11.136;2023-05-10T01:28:00;7.68;;;3.97;;
15254;SDS011;7730;49.610;11.136;2023-05-10T01:30:38;7.07;;;3.72;;
15254;SDS011;7730;49.610;11.136;2023-05-10T01:33:16;9.52;;;4.05;;
15254;SDS011;7730;49.610;11.136;2023-05-10T01:35:47;7.90;;;3.72;;
15254;SDS011;7730;49.610;11.136;2023-05-10T01:38:20;8.13;;;4.10;;
15254;SDS011;7730;49.610;11.136;2023-05-10T01:40:52;7.45;;;3.90;;
15254;SDS011;7730;49.610;11.136;2023-05-10T01:43:28;8.50;;;4.20;;
15254;SDS011;7730;49.610;11.136;2023-05-10T01:45:59;8.57;;;4.40;;
15254;SDS011;7730;49.610;11.136;2023-05-10T01:48:30;7.53;;;4.10;;
15254;SDS011;7730;49.610;11.136;2023-05-10T01:50:59;9.27;;;4.40;;
15254;SDS011;7730;49.610;11.136;2023-05-10T01:53:26;10.27;;;4.40;;
15254;SDS011;7730;49.610;11.136;2023-05-10T01:55:54;8.27;;;4.20;;
15254;SDS011;7730;49.610;11.136;2023-05-10T01:58:23;9.98;;;4.53;;
15254;SDS011;7730;49.610;11.136;2023-05-10T02:00:51;9.02;;;4.50;;
15254;SDS011;7730;49.610;11.136;2023-05-10T02:03:20;10.30;;;4.82;;
15254;SDS011;7730;49.610;11.136;2023-05-10T02:05:50;11.10;;;4.97;;
15254;SDS011;7730;49.610;11.136;2023-05-10T02:08:17;9.60;;;4.70;;
15254;SDS011;7730;49.610;11.136;2023-05-10T02:10:45;8.45;;;4.78;;
15254;SDS011;7730;49.610;11.136;2023-05-10T02:13:13;11.45;;;5.03;;
15254;SDS011;7730;49.610;11.136;2023-05-10T02:15:40;10.82;;;5.20;;
15254;SDS011;7730;49.610;11.136;2023-05-10T02:18:08;12.05;;;5.22;;
15254;SDS011;7730;49.610;11.136;2023-05-10T02:20:36;12.32;;;5.30;;
15254;SDS011;7730;49.610;11.136;2023-05-10T02:23:05;10.32;;;5.22;;
15254;SDS011;7730;49.610;11.136;2023-05-10T02:25:33;10.40;;;5.13;;
15254;SDS011;7730;49.610;11.136;2023-05-10T02:28:01;10.15;;;5.20;;
15254;SDS011;7730;49.610;11.136;2023-05-10T02:30:29;11.88;;;5.35;;
15254;SDS011;7730;49.610;11.136;2023-05-10T02:32:57;10.55;;;5.35;;
15254;SDS011;7730;49.610;11.136;2023-05-10T02:35:25;9.68;;;5.18;;
15254;SDS011;7730;49.610;11.136;2023-05-10T02:37:52;10.38;;;5.40;;
15254;SDS011;7730;49.610;11.136;2023-05-10T02:40:22;11.20;;;5.53;;
15254;SDS011;7730;49.610;11.136;2023-05-10T02:42:50;11.32;;;5.40;;
15254;SDS011;7730;49.610;11.136;2023-05-10T02:45:19;10.80;;;5.28;;
15254;SDS011;7730;49.610;11.136;2023-05-10T02:47:47;14.20;;;5.97;;
15254;SDS011;7730;49.610;11.136;2023-05-10T02:50:14;11.68;;;5.85;;
15254;SDS011;7730;49.610;11.136;2023-05-10T02:52:42;10.57;;;5.38;;
15254;SDS011;7730;49.610;11.136;2023-05-10T02:55:11;10.50;;;5.05;;
15254;SDS011;7730;49.610;11.136;2023-05-10T02:57:43;13.13;;;6.57;;
15254;SDS011;7730;49.610;11.136;2023-05-10T03:00:13;12.70;;;6.25;;
15254;SDS011;7730;49.610;11.136;2023-05-10T03:02:40;10.48;;;5.57;;
15254;SDS011;7730;49.610;11.136;2023-05-10T03:05:07;10.80;;;5.35;;
15254;SDS011;7730;49.610;11.136;2023-05-10T03:07:34;9.98;;;5.28;;
15254;SDS011;7730;49.610;11.136;2023-05-10T03:10:02;10.38;;;5.28;;
15254;SDS011;7730;49.610;11.136;2023-05-10T03:12:32;11.88;;;5.60;;
15254;SDS011;7730;49.610;11.136;2023-05-10T03:15:03;11.88;;;5.88;;
15254;SDS011;7730;49.610;11.136;2023-05-10T03:17:35;10.63;;;5.60;;
15254;SDS011;7730;49.610;11.136;2023-05-10T03:20:06;10.40;;;5.88;;
15254;SDS011;7730;49.610;11.136;2023-05-10T03:22:36;11.43;;;5.60;;
15254;SDS011;7730;49.610;11.136;2023-05-10T03:25:04;11.93;;;5.55;;
15254;SDS011;7730;49.610;11.136;2023-05-10T03:27:33;10.90;;;5.30;;
15254;SDS011;7730;49.610;11.136;2023-05-10T03:30:02;12.88;;;5.45;;
15254;SDS011;7730;49.610;11.136;2023-05-10T03:32:30;10.55;;;5.60;;
15254;SDS011;7730;49.610;11.136;2023-05-10T03:34:59;8.90;;;4.72;;
15254;SDS011;7730;49.610;11.136;2023-05-10T03:37:27;11.43;;;5.18;;
15254;SDS011;7730;49.610;11.136;2023-05-10T03:39:54;10.38;;;5.00;;
15254;SDS011;7730;49.610;11.136;2023-05-10T03:42:21;11.93;;;5.53;;
15254;SDS011;7730;49.610;11.136;2023-05-10T03:44:48;8.20;;;4.13;;
15254;SDS011;7730;49.610;11.136;2023-05-10T03:47:16;6.90;;;3.90;;
15254;SDS011;7730;49.610;11.136;2023-05-10T03:49:43;7.47;;;3.70;;
15254;SDS011;7730;49.610;11.136;2023-05-10T03:52:10;7.88;;;3.78;;
15254;SDS011;7730;49.610;11.136;2023-05-10T03:54:37;7.25;;;3.30;;
15254;SDS011;7730;49.610;11.136;2023-05-10T03:57:04;5.25;;;3.22;;
15254;SDS011;7730;49.610;11.136;2023-05-10T03:59:31;6.35;;;3.20;;
15254;SDS011;7730;49.610;11.136;2023-05-10T04:01:58;4.93;;;2.65;;
15254;SDS011;7730;49.610;11.136;2023-05-10T04:04:26;4.90;;;2.70;;
15254;SDS011;7730;49.610;11.136;2023-05-10T04:06:53;4.15;;;2.33;;
15254;SDS011;7730;49.610;11.136;2023-05-10T04:09:20;5.05;;;2.10;;
15254;SDS011;7730;49.610;11.136;2023-05-10T04:11:47;2.60;;;1.88;;
15254;SDS011;7730;49.610;11.136;2023-05-10T04:14:14;3.38;;;1.90;;
15254;SDS011;7730;49.610;11.136;2023-05-10T04:16:42;3.60;;;1.50;;
15254;SDS011;7730;49.610;11.136;2023-05-10T04:19:09;3.58;;;1.75;;
15254;SDS011;7730;49.610;11.136;2023-05-10T04:21:38;1.55;;;1.45;;
15254;SDS011;7730;49.610;11.136;2023-05-10T04:24:05;2.15;;;1.30;;
15254;SDS011;7730;49.610;11.136;2023-05-10T04:26:32;1.52;;;1.42;;
15254;SDS011;7730;49.610;11.136;2023-05-10T04:28:59;2.50;;;1.33;;
15254;SDS011;7730;49.610;11.136;2023-05-10T04:31:26;2.20;;;1.35;;
15254;SDS011;7730;49.610;11.136;2023-05-10T04:33:53;1.50;;;1.40;;
15254;SDS011;7730;49.610;11.136;2023-05-10T04:36:20;1.20;;;1.08;;
15254;SDS011;7730;49.610;11.136;2023-05-10T04:38:48;2.42;;;1.17;;
15254;SDS011;7730;49.610;11.136;2023-05-10T04:41:15;1.90;;;1.40;;
15254;SDS011;7730;49.610;11.136;2023-05-10T04:43:42;1.30;;;1.20;;
15254;SDS011;7730;49.610;11.136;2023-05-10T04:46:09;1.30;;;1.20;;
15254;SDS011;7730;49.610;11.136;2023-05-10T04:48:36;2.67;;;1.20;;
15254;SDS011;7730;49.610;11.136;2023-05-10T04:51:03;3.67;;;1.20;;
15254;SDS011;7730;49.610;11.136;2023-05-10T04:53:31;1.23;;;1.08;;
15254;SDS011;7730;49.610;11.136;2023-05-10T04:55:59;1.17;;;1.05;;
15254;SDS011;7730;49.610;11.136;2023-05-10T04:58:26;2.72;;;1.30;;
15254;SDS011;7730;49.610;11.136;2023-05-10T05:00:53;1.30;;;1.15;;
15254;SDS011;7730;49.610;11.136;2023-05-10T05:03:20;3.47;;;1.30;;
15254;SDS011;7730;49.610;11.136;2023-05-10T05:05:48;3.28;;;1.10;;
15254;SDS011;7730;49.610;11.136;2023-05-10T05:08:15;2.20;;;1.10;;
15254;SDS011;7730;49.610;11.136;2023-05-10T05:10:42;3.72;;;1.10;;
15254;SDS011;7730;49.610;11.136;2023-05-10T05:13:12;3.00;;;1.17;;
15254;SDS011;7730;49.610;11.136;2023-05-10T05:15:39;4.75;;;1.42;;
15254;SDS011;7730;49.610;11.136;2023-05-10T05:18:06;2.35;;;1.10;;
15254;SDS011;7730;49.610;11.136;2023-05-10T05:20:33;3.17;;;1.58;;
15254;SDS011;7730;49.610;11.136;2023-05-10T05:23:00;1.63;;;1.25;;
15254;SDS011;7730;49.610;11.136;2023-05-10T05:25:27;4.05;;;1.60;;
15254;SDS011;7730;49.610;11.136;2023-05-10T05:27:54;2.00;;;1.60;;
15254;SDS011;7730;49.610;11.136;2023-05-10T05:30:22;2.13;;;1.60;;
15254;SDS011;7730;49.610;11.136;2023-05-10T05:32:49;2.17;;;1.30;;
15254;SDS011;7730;49.610;11.136;2023-05-10T05:35:16;4.10;;;1.45;;
15254;SDS011;7730;49.610;11.136;2023-05-10T05:37:43;1.63;;;1.10;;
15254;SDS011;7730;49.610;11.136;2023-05-10T05:40:12;2.63;;;1.50;;
15254;SDS011;7730;49.610;11.136;2023-05-10T05:42:39;3.08;;;1.30;;
15254;SDS011;7730;49.610;11.136;2023-05-10T05:45:06;2.50;;;1.38;;
15254;SDS011;7730;49.610;11.136;2023-05-10T05:47:35;1.30;;;1.20;;
15254;SDS011;7730;49.610;11.136;2023-05-10T05:50:02;2.80;;;1.10;;
15254;SDS011;7730;49.610;11.136;2023-05-10T05:52:29;2.05;;;1.20;;
15254;SDS011;7730;49.610;11.136;2023-05-10T05:54:56;5.70;;;1.50;;
15254;SDS011;7730;49.610;11.136;2023-05-10T05:57:23;2.25;;;1.25;;
15254;SDS011;7730;49.610;11.136;2023-05-10T05:59:51;2.50;;;1.65;;
15254;SDS011;7730;49.610;11.136;2023-05-10T06:02:18;2.35;;;1.48;;
15254;SDS011;7730;49.610;11.136;2023-05-10T06:04:46;3.28;;;1.23;;
15254;SDS011;7730;49.610;11.136;2023-05-10T06:07:13;1.85;;;1.25;;
15254;SDS011;7730;49.610;11.136;2023-05-10T06:09:40;2.88;;;1.45;;
15254;SDS011;7730;49.610;11.136;2023-05-10T06:12:10;3.38;;;1.30;;
15254;SDS011;7730;49.610;11.136;2023-05-10T06:14:37;3.22;;;1.45;;
15254;SDS011;7730;49.610;11.136;2023-05-10T06:17:04;10.98;;;1.95;;
15254;SDS011;7730;49.610;11.136;2023-05-10T06:19:31;4.45;;;1.50;;
15254;SDS011;7730;49.610;11.136;2023-05-10T06:22:00;4.07;;;1.35;;
15254;SDS011;7730;49.610;11.136;2023-05-10T06:24:27;2.45;;;1.40;;
15254;SDS011;7730;49.610;11.136;2023-05-10T06:26:54;2.47;;;1.40;;
15254;SDS011;7730;49.610;11.136;2023-05-10T06:29:21;4.13;;;1.48;;
15254;SDS011;7730;49.610;11.136;2023-05-10T06:31:48;3.05;;;1.60;;
15254;SDS011;7730;49.610;11.136;2023-05-10T06:34:15;3.25;;;1.40;;
15254;SDS011;7730;49.610;11.136;2023-05-10T06:36:42;2.25;;;1.50;;
15254;SDS011;7730;49.610;11.136;2023-05-10T06:39:11;2.97;;;1.40;;
15254;SDS011;7730;49.610;11.136;2023-05-10T06:41:38;2.20;;;1.40;;
15254;SDS011;7730;49.610;11.136;2023-05-10T06:44:05;2.60;;;1.45;;
15254;SDS011;7730;49.610;11.136;2023-05-10T06:46:33;4.45;;;1.50;;
15254;SDS011;7730;49.610;11.136;2023-05-10T06:49:00;2.15;;;1.55;;
15254;SDS011;7730;49.610;11.136;2023-05-10T06:51:27;7.25;;;1.73;;
15254;SDS011;7730;49.610;11.136;2023-05-10T06:53:54;3.00;;;1.60;;
15254;SDS011;7730;49.610;11.136;2023-05-10T06:56:22;2.45;;;1.50;;
15254;SDS011;7730;49.610;11.136;2023-05-10T06:58:49;5.93;;;1.77;;
15254;SDS011;7730;49.610;11.136;2023-05-10T07:01:16;4.22;;;1.60;;
15254;SDS011;7730;49.610;11.136;2023-05-10T07:03:43;4.93;;;1.70;;
15254;SDS011;7730;49.610;11.136;2023-05-10T07:06:10;2.53;;;1.30;;
15254;SDS011;7730;49.610;11.136;2023-05-10T07:08:37;3.13;;;1.70;;
15254;SDS011;7730;49.610;11.136;2023-05-10T07:11:05;2.90;;;1.67;;
15254;SDS011;7730;49.610;11.136;2023-05-10T07:13:33;3.67;;;1.50;;
15254;SDS011;7730;49.610;11.136;2023-05-10T07:16:01;1.85;;;1.50;;
15254;SDS011;7730;49.610;11.136;2023-05-10T07:18:28;3.83;;;1.65;;
15254;SDS011;7730;49.610;11.136;2023-05-10T07:20:56;5.93;;;1.60;;
15254;SDS011;7730;49.610;11.136;2023-05-10T07:23:23;2.10;;;1.30;;
15254;SDS011;7730;49.610;11.136;2023-05-10T07:25:50;1.60;;;1.20;;
15254;SDS011;7730;49.610;11.136;2023-05-10T07:28:18;7.32;;;1.50;;
15254;SDS011;7730;49.610;11.136;2023-05-10T07:30:46;3.45;;;1.60;;
15254;SDS011;7730;49.610;11.136;2023-05-10T07:33:14;4.25;;;1.50;;
15254;SDS011;7730;49.610;11.136;2023-05-10T07:35:41;5.25;;;1.33;;
15254;SDS011;7730;49.610;11.136;2023-05-10T07:38:08;6.15;;;1.65;;
15254;SDS011;7730;49.610;11.136;2023-05-10T07:40:36;7.20;;;2.00;;
15254;SDS011;7730;49.610;11.136;2023-05-10T07:43:03;7.63;;;2.47;;
15254;SDS011;7730;49.610;11.136;2023-05-10T07:45:30;4.18;;;1.77;;
15254;SDS011;7730;49.610;11.136;2023-05-10T07:47:59;4.93;;;1.73;;
15254;SDS011;7730;49.610;11.136;2023-05-10T07:50:26;7.50;;;2.35;;
15254;SDS011;7730;49.610;11.136;2023-05-10T07:52:53;6.38;;;1.90;;
15254;SDS011;7730;49.610;11.136;2023-05-10T07:55:20;3.97;;;1.60;;
15254;SDS011;7730;49.610;11.136;2023-05-10T07:57:47;4.80;;;1.60;;
15254;SDS011;7730;49.610;11.136;2023-05-10T08:00:16;5.22;;;1.40;;
15254;SDS011;7730;49.610;11.136;2023-05-10T08:02:43;7.20;;;1.50;;
15254;SDS011;7730;49.610;11.136;2023-05-10T08:05:12;5.70;;;1.58;;
15254;SDS011;7730;49.610;11.136;2023-05-10T08:07:39;4.75;;;1.67;;
15254;SDS011;7730;49.610;11.136;2023-05-10T08:10:08;4.13;;;1.40;;
15254;SDS011;7730;49.610;11.136;2023-05-10T08:12:35;7.93;;;1.60;;
15254;SDS011;7730;49.610;11.136;2023-05-10T08:15:03;5.93;;;1.77;;
15254;SDS011;7730;49.610;11.136;2023-05-10T08:17:30;3.22;;;1.55;;
15254;SDS011;7730;49.610;11.136;2023-05-10T08:19:57;2.70;;;1.50;;
15254;SDS011;7730;49.610;11.136;2023-05-10T08:22:25;6.30;;;1.50;;
15254;SDS011;7730;49.610;11.136;2023-05-10T08:24:52;5.68;;;1.65;;
15254;SDS011;7730;49.610;11.136;2023-05-10T08:27:19;6.43;;;1.80;;
15254;SDS011;7730;49.610;11.136;2023-05-10T08:29:46;6.05;;;1.75;;
15254;SDS011;7730;49.610;11.136;2023-05-10T08:32:13;3.08;;;1.40;;
15254;SDS011;7730;49.610;11.136;2023-05-10T08:34:40;6.28;;;1.70;;
15254;SDS011;7730;49.610;11.136;2023-05-10T08:37:07;3.13;;;1.58;;
15254;SDS011;7730;49.610;11.136;2023-05-10T08:39:36;3.20;;;1.40;;
15254;SDS011;7730;49.610;11.136;2023-05-10T08:42:04;4.88;;;1.90;;
15254;SDS011;7730;49.610;11.136;2023-05-10T08:44:32;3.55;;;1.73;;
15254;SDS011;7730;49.610;11.136;2023-05-10T08:47:01;4.50;;;1.40;;
15254;SDS011;7730;49.610;11.136;2023-05-10T08:49:29;8.20;;;1.95;;
15254;SDS011;7730;49.610;11.136;2023-05-10T08:51:57;7.13;;;2.30;;
15254;SDS011;7730;49.610;11.136;2023-05-10T08:54:26;5.85;;;1.80;;
15254;SDS011;7730;49.610;11.136;2023-05-10T08:56:54;6.13;;;1.75;;
15254;SDS011;7730;49.610;11.136;2023-05-10T08:59:22;5.30;;;2.05;;
15254;SDS011;7730;49.610;11.136;2023-05-10T09:01:49;11.10;;;2.20;;
15254;SDS011;7730;49.610;11.136;2023-05-10T09:04:18;10.55;;;2.20;;
15254;SDS011;7730;49.610;11.136;2023-05-10T09:06:45;5.03;;;1.73;;
15254;SDS011;7730;49.610;11.136;2023-05-10T09:09:13;6.18;;;1.90;;
15254;SDS011;7730;49.610;11.136;2023-05-10T09:11:41;6.22;;;1.90;;
15254;SDS011;7730;49.610;11.136;2023-05-10T09:14:09;10.95;;;1.90;;
15254;SDS011;7730;49.610;11.136;2023-05-10T09:16:37;5.60;;;1.80;;
15254;SDS011;7730;49.610;11.136;2023-05-10T09:19:04;6.32;;;2.03;;
15254;SDS011;7730;49.610;11.136;2023-05-10T09:21:32;7.40;;;2.38;;
15254;SDS011;7730;49.610;11.136;2023-05-10T09:24:02;6.10;;;2.30;;
15254;SDS011;7730;49.610;11.136;2023-05-10T09:26:29;4.50;;;1.83;;
15254;SDS011;7730;49.610;11.136;2023-05-10T09:28:57;4.88;;;1.77;;
15254;SDS011;7730;49.610;11.136;2023-05-10T09:31:25;2.17;;;1.30;;
15254;SDS011;7730;49.610;11.136;2023-05-10T09:34:09;2.83;;;1.27;;
15254;SDS011;7730;49.610;11.136;2023-05-10T09:36:36;3.22;;;1.60;;
15254;SDS011;7730;49.610;11.136;2023-05-10T09:39:03;4.78;;;1.80;;
15254;SDS011;7730;49.610;11.136;2023-05-10T09:41:30;2.95;;;1.42;;
15254;SDS011;7730;49.610;11.136;2023-05-10T09:43:57;3.92;;;1.40;;
15254;SDS011;7730;49.610;11.136;2023-05-10T09:46:25;3.58;;;1.60;;
15254;SDS011;7730;49.610;11.136;2023-05-10T09:48:52;4.30;;;1.50;;
15254;SDS011;7730;49.610;11.136;2023-05-10T09:51:20;3.15;;;1.60;;
15254;SDS011;7730;49.610;11.136;2023-05-10T09:53:47;3.55;;;1.60;;
15254;SDS011;7730;49.610;11.136;2023-05-10T09:59:01;4.93;;;1.73;;
15254;SDS011;7730;49.610;11.136;2023-05-10T10:01:30;3.88;;;1.90;;
15254;SDS011;7730;49.610;11.136;2023-05-10T10:03:57;4.55;;;2.10;;
15254;SDS011;7730;49.610;11.136;2023-05-10T10:06:24;6.72;;;2.50;;
15254;SDS011;7730;49.610;11.136;2023-05-10T10:08:53;3.28;;;2.10;;
15254;SDS011;7730;49.610;11.136;2023-05-10T10:11:21;10.95;;;3.08;;
15254;SDS011;7730;49.610;11.136;2023-05-10T10:13:48;5.95;;;2.30;;
15254;SDS011;7730;49.610;11.136;2023-05-10T10:16:15;5.15;;;2.10;;
15254;SDS011;7730;49.610;11.136;2023-05-10T10:18:44;8.18;;;2.28;;
15254;SDS011;7730;49.610;11.136;2023-05-10T10:21:12;6.68;;;2.10;;
15254;SDS011;7730;49.610;11.136;2023-05-10T10:23:40;3.85;;;2.10;;
15254;SDS011;7730;49.610;11.136;2023-05-10T10:26:08;3.20;;;2.03;;
15254;SDS011;7730;49.610;11.136;2023-05-10T10:28:35;4.10;;;2.00;;
15254;SDS011;7730;49.610;11.136;2023-05-10T10:31:12;6.05;;;2.10;;
15254;SDS011;7730;49.610;11.136;2023-05-10T10:33:50;4.10;;;2.15;;
15254;SDS011;7730;49.610;11.136;2023-05-10T10:36:19;3.85;;;2.05;;
15254;SDS011;7730;49.610;11.136;2023-05-10T10:38:59;4.50;;;2.20;;
15254;SDS011;7730;49.610;11.136;2023-05-10T10:41:27;10.70;;;2.40;;
15254;SDS011;7730;49.610;11.136;2023-05-10T10:46:46;6.43;;;1.88;;
15254;SDS011;7730;49.610;11.136;2023-05-10T10:49:26;4.60;;;1.75;;
15254;SDS011;7730;49.610;11.136;2023-05-10T10:54:39;5.15;;;1.90;;
15254;SDS011;7730;49.610;11.136;2023-05-10T10:57:10;4.88;;;1.58;;
15254;SDS011;7730;49.610;11.136;2023-05-10T10:59:40;2.78;;;1.30;;
15254;SDS011;7730;49.610;11.136;2023-05-10T11:02:08;3.65;;;1.25;;
15254;SDS011;7730;49.610;11.136;2023-05-10T11:04:43;2.30;;;1.60;;
15254;SDS011;7730;49.610;11.136;2023-05-10T11:07:17;13.07;;;2.30;;
15254;SDS011;7730;49.610;11.136;2023-05-10T11:09:45;4.05;;;1.80;;
15254;SDS011;7730;49.610;11.136;2023-05-10T11:12:13;3.92;;;1.80;;
15254;SDS011;7730;49.610;11.136;2023-05-10T11:14:41;9.10;;;2.10;;
15254;SDS011;7730;49.610;11.136;2023-05-10T11:17:23;5.72;;;1.90;;
15254;SDS011;7730;49.610;11.136;2023-05-10T11:20:04;3.35;;;1.70;;
15254;SDS011;7730;49.610;11.136;2023-05-10T11:22:44;3.25;;;1.70;;
15254;SDS011;7730;49.610;11.136;2023-05-10T11:25:16;5.47;;;1.85;;
15254;SDS011;7730;49.610;11.136;2023-05-10T11:27:43;5.05;;;1.60;;
15254;SDS011;7730;49.610;11.136;2023-05-10T11:30:10;5.57;;;2.00;;
15254;SDS011;7730;49.610;11.136;2023-05-10T11:32:37;6.10;;;1.90;;
15254;SDS011;7730;49.610;11.136;2023-05-10T11:35:09;5.38;;;1.80;;
15254;SDS011;7730;49.610;11.136;2023-05-10T11:37:37;8.05;;;2.10;;
15254;SDS011;7730;49.610;11.136;2023-05-10T11:40:09;7.50;;;2.20;;
15254;SDS011;7730;49.610;11.136;2023-05-10T11:42:36;4.85;;;2.00;;
15254;SDS011;7730;49.610;11.136;2023-05-10T11:45:04;5.32;;;1.80;;
15254;SDS011;7730;49.610;11.136;2023-05-10T11:47:31;6.35;;;1.70;;
15254;SDS011;7730;49.610;11.136;2023-05-10T11:50:00;3.00;;;2.08;;
15254;SDS011;7730;49.610;11.136;2023-05-10T11:52:28;3.63;;;1.70;;
15254;SDS011;7730;49.610;11.136;2023-05-10T11:54:55;5.75;;;2.13;;
15254;SDS011;7730;49.610;11.136;2023-05-10T11:57:25;5.85;;;2.10;;
15254;SDS011;7730;49.610;11.136;2023-05-10T11:59:53;4.43;;;2.20;;
15254;SDS011;7730;49.610;11.136;2023-05-10T12:02:20;4.80;;;2.10;;
15254;SDS011;7730;49.610;11.136;2023-05-10T12:04:47;3.72;;;1.98;;
15254;SDS011;7730;49.610;11.136;2023-05-10T12:07:14;4.55;;;2.28;;
15254;SDS011;7730;49.610;11.136;2023-05-10T12:09:43;3.03;;;2.00;;
15254;SDS011;7730;49.610;11.136;2023-05-10T12:12:10;4.00;;;2.25;;
15254;SDS011;7730;49.610;11.136;2023-05-10T12:14:42;6.47;;;2.33;;
15254;SDS011;7730;49.610;11.136;2023-05-10T12:17:11;25.88;;;3.83;;
15254;SDS011;7730;49.610;11.136;2023-05-10T12:19:38;4.03;;;2.10;;
15254;SDS011;7730;49.610;11.136;2023-05-10T12:22:05;7.72;;;2.40;;
15254;SDS011;7730;49.610;11.136;2023-05-10T12:24:33;3.88;;;1.38;;
15254;SDS011;7730;49.610;11.136;2023-05-10T12:27:05;6.15;;;1.67;;
15254;SDS011;7730;49.610;11.136;2023-05-10T12:29:33;6.10;;;1.77;;
15254;SDS011;7730;49.610;11.136;2023-05-10T12:32:00;2.47;;;1.73;;
15254;SDS011;7730;49.610;11.136;2023-05-10T12:34:30;4.63;;;1.70;;
15254;SDS011;7730;49.610;11.136;2023-05-10T12:36:57;3.67;;;1.70;;
15254;SDS011;7730;49.610;11.136;2023-05-10T12:39:24;2.22;;;1.52;;
15254;SDS011;7730;49.610;11.136;2023-05-10T12:41:52;26.05;;;3.70;;
15254;SDS011;7730;49.610;11.136;2023-05-10T12:44:20;4.22;;;1.63;;
15254;SDS011;7730;49.610;11.136;2023-05-10T12:46:47;6.50;;;1.80;;
15254;SDS011;7730;49.610;11.136;2023-05-10T12:49:14;5.10;;;1.73;;
15254;SDS011;7730;49.610;11.136;2023-05-10T12:51:41;2.63;;;1.77;;
15254;SDS011;7730;49.610;11.136;2023-05-10T12:54:08;4.80;;;1.92;;
15254;SDS011;7730;49.610;11.136;2023-05-10T12:56:35;2.20;;;1.55;;
15254;SDS011;7730;49.610;11.136;2023-05-10T12:59:03;2.15;;;1.50;;
15254;SDS011;7730;49.610;11.136;2023-05-10T13:01:31;4.05;;;1.90;;
15254;SDS011;7730;49.610;11.136;2023-05-10T13:03:58;3.03;;;1.90;;
15254;SDS011;7730;49.610;11.136;2023-05-10T13:06:26;6.10;;;2.33;;
15254;SDS011;7730;49.610;11.136;2023-05-10T13:08:53;3.65;;;1.75;;
15254;SDS011;7730;49.610;11.136;2023-05-10T13:11:20;5.43;;;2.00;;
15254;SDS011;7730;49.610;11.136;2023-05-10T13:13:47;5.35;;;1.95;;
15254;SDS011;7730;49.610;11.136;2023-05-10T13:16:14;5.22;;;1.92;;
15254;SDS011;7730;49.610;11.136;2023-05-10T13:18:42;5.22;;;1.70;;
15254;SDS011;7730;49.610;11.136;2023-05-10T13:21:09;3.50;;;2.00;;
15254;SDS011;7730;49.610;11.136;2023-05-10T13:23:36;5.25;;;1.95;;
15254;SDS011;7730;49.610;11.136;2023-05-10T13:26:03;3.72;;;1.80;;
15254;SDS011;7730;49.610;11.136;2023-05-10T13:28:30;7.45;;;2.08;;
15254;SDS011;7730;49.610;11.136;2023-05-10T13:30:57;3.55;;;1.90;;
15254;SDS011;7730;49.610;11.136;2023-05-10T13:33:24;4.75;;;1.98;;
15254;SDS011;7730;49.610;11.136;2023-05-10T13:35:53;9.38;;;2.30;;
15254;SDS011;7730;49.610;11.136;2023-05-10T13:38:20;4.90;;;2.10;;
15254;SDS011;7730;49.610;11.136;2023-05-10T13:40:47;10.20;;;2.10;;
15254;SDS011;7730;49.610;11.136;2023-05-10T13:43:17;5.38;;;1.90;;
15254;SDS011;7730;49.610;11.136;2023-05-10T13:45:44;62.97;;;6.10;;
15254;SDS011;7730;49.610;11.136;2023-05-10T13:48:11;6.15;;;1.85;;
15254;SDS011;7730;49.610;11.136;2023-05-10T13:50:38;3.45;;;1.73;;
15254;SDS011;7730;49.610;11.136;2023-05-10T13:53:06;4.60;;;1.67;;
15254;SDS011;7730;49.610;11.136;2023-05-10T13:55:33;3.95;;;1.60;;
15254;SDS011;7730;49.610;11.136;2023-05-10T13:58:01;3.78;;;1.65;;
15254;SDS011;7730;49.610;11.136;2023-05-10T14:00:28;4.80;;;1.83;;
15254;SDS011;7730;49.610;11.136;2023-05-10T14:02:55;6.35;;;2.08;;
15254;SDS011;7730;49.610;11.136;2023-05-10T14:05:22;3.70;;;1.55;;
15254;SDS011;7730;49.610;11.136;2023-05-10T14:07:49;5.10;;;1.70;;
15254;SDS011;7730;49.610;11.136;2023-05-10T14:10:18;1.73;;;1.30;;
15254;SDS011;7730;49.610;11.136;2023-05-10T14:12:45;3.47;;;1.40;;
15254;SDS011;7730;49.610;11.136;2023-05-10T14:15:12;3.03;;;1.58;;
15254;SDS011;7730;49.610;11.136;2023-05-10T14:17:39;1.95;;;1.50;;
15254;SDS011;7730;49.610;11.136;2023-05-10T14:20:06;3.28;;;1.50;;
15254;SDS011;7730;49.610;11.136;2023-05-10T14:22:33;5.28;;;1.70;;
15254;SDS011;7730;49.610;11.136;2023-05-10T14:25:00;2.00;;;1.40;;
15254;SDS011;7730;49.610;11.136;2023-05-10T14:27:29;5.45;;;1.80;;
15254;SDS011;7730;49.610;11.136;2023-05-10T14:29:56;4.35;;;2.08;;
15254;SDS011;7730;49.610;11.136;2023-05-10T14:32:23;3.50;;;1.80;;
15254;SDS011;7730;49.610;11.136;2023-05-10T14:34:51;6.28;;;2.30;;
15254;SDS011;7730;49.610;11.136;2023-05-10T14:37:19;2.22;;;1.45;;
15254;SDS011;7730;49.610;11.136;2023-05-10T14:39:46;4.03;;;1.77;;
15254;SDS011;7730;49.610;11.136;2023-05-10T14:42:13;3.22;;;1.63;;
15254;SDS011;7730;49.610;11.136;2023-05-10T14:44:42;3.83;;;1.60;;
15254;SDS011;7730;49.610;11.136;2023-05-10T14:47:09;2.85;;;1.70;;
15254;SDS011;7730;49.610;11.136;2023-05-10T14:49:36;3.03;;;1.50;;
15254;SDS011;7730;49.610;11.136;2023-05-10T14:52:03;4.93;;;1.80;;
15254;SDS011;7730;49.610;11.136;2023-05-10T14:54:30;3.60;;;1.75;;
15254;SDS011;7730;49.610;11.136;2023-05-10T14:56:58;3.92;;;1.98;;
15254;SDS011;7730;49.610;11.136;2023-05-10T14:59:25;2.80;;;1.80;;